Observations for CRANFIELD, United Kingdom (EGTC)

EGTC 181650Z 21020KT 9999 BKN030 20/15 Q1009
EGTC 181620Z 21015G25KT 9999 -DZ BKN027 19/15 Q1009 
EGTC 181550Z 22016G28KT 9999 SCT035 21/14 Q1009 
EGTC 181520Z 22018G31KT 9999 BKN032 21/14 Q1009 
EGTC 181450Z 22016G26KT 9999 SCT036 22/14 Q1009 
EGTC 181420Z 24015KT 9999 FEW032 SCT049 21/14 Q1008 
EGTC 181350Z 23017G29KT 9999 SCT032 22/14 Q1008 
EGTC 181320Z 23017G28KT 9999 SCT031 21/14 Q1008 
EGTC 181250Z 24017KT 9999 SCT032 22/13 Q1008
EGTC 181220Z 23021G32KT 9999 FEW032 22/13 Q1007 
EGTC 181150Z 23022G34KT 9999 FEW031 21/13 Q1007 
EGTC 181120Z 24018G30KT 9999 FEW031 20/12 Q1007 
EGTC 181050Z 23019G30KT 200V260 9999 FEW030 20/12 Q1007 
EGTC 181020Z 23020G31KT 9999 SCT027 19/13 Q1006 
EGTC 180950Z 24017G29KT 9999 BKN020 19/14 Q1006 
EGTC 180920Z 23019G31KT 9999 BKN018 19/15 Q1005 
EGTC 180820Z 21022KT 9999 BKN017 19/15 Q1004
EGTC 180750Z 21021G31KT 9999 BKN015 18/15 Q1003 
EGTC 180720Z 20021G32KT 9999 BKN013 18/16 Q1003 
EGTC 180650Z 21020G34KT 9999 BKN012 17/16 Q1003 
EGTC 180620Z 20021G31KT 6000 -DZ BKN015 18/16 Q1003